Time;durP1;ratioP1;P1;durP2;ratioP2;P2;SDS_P1;SDS_P2;PMS_P1;PMS_P2;Temp;Humidity;BMP_temperature;BMP_pressure;BME280_temperature;BME280_humidity;BME280_pressure;Samples;Min_cycle;Max_cycle;Signal;HPM_P1;HPM_P2
2021/10/18 00:00:56;;;;;;;6.30;4.32;;;9.50;99.90;;;;;;5020509;28;20076;-58
2021/10/18 00:03:23;;;;;;;6.57;4.72;;;9.50;99.90;;;;;;5021235;28;20050;-59
2021/10/18 00:05:51;;;;;;;12.93;4.78;;;9.50;99.90;;;;;;5022054;28;20049;-58
2021/10/18 00:08:18;;;;;;;8.27;4.82;;;9.50;99.90;;;;;;5021428;28;20485;-62
2021/10/18 00:10:45;;;;;;;7.53;4.30;;;9.50;99.90;;;;;;5022173;28;20081;-59
2021/10/18 00:13:31;;;;;;;5.03;4.13;;;9.50;99.90;;;;;;5033441;28;20813;-58
2021/10/18 00:15:58;;;;;;;9.90;4.82;;;9.50;99.90;;;;;;5021457;28;20584;-58
2021/10/18 00:18:25;;;;;;;6.00;4.68;;;9.60;99.90;;;;;;5019711;28;20486;-59
2021/10/18 00:20:51;;;;;;;8.65;4.97;;;9.50;99.90;;;;;;5022178;28;20563;-58
2021/10/18 00:23:18;;;;;;;6.50;4.45;;;9.50;99.90;;;;;;5020573;28;20049;-58
2021/10/18 00:25:46;;;;;;;8.82;4.65;;;9.50;99.90;;;;;;5021991;28;20041;-59
2021/10/18 00:28:13;;;;;;;6.57;4.20;;;9.50;99.90;;;;;;5020117;28;20133;-58
2021/10/18 00:30:39;;;;;;;7.85;4.88;;;9.50;99.90;;;;;;5021666;28;20128;-59
2021/10/18 00:33:06;;;;;;;5.70;4.47;;;9.50;99.90;;;;;;5019274;28;20046;-59
2021/10/18 00:35:33;;;;;;;5.50;4.22;;;9.50;99.90;;;;;;5021261;28;20058;-59
2021/10/18 00:38:00;;;;;;;6.07;4.60;;;9.50;99.90;;;;;;5023757;28;20132;-58
2021/10/18 00:40:27;;;;;;;7.82;4.75;;;9.50;99.90;;;;;;5025330;28;20049;-59
2021/10/18 00:42:54;;;;;;;8.63;4.70;;;9.50;99.90;;;;;;5024007;28;20508;-59
2021/10/18 00:45:21;;;;;;;6.68;4.90;;;9.50;99.90;;;;;;5024063;28;20571;-59
2021/10/18 00:47:48;;;;;;;8.65;4.97;;;9.50;99.90;;;;;;5023392;28;20046;-59
2021/10/18 00:50:15;;;;;;;6.72;4.70;;;9.50;99.90;;;;;;5023816;28;20085;-59
2021/10/18 00:52:42;;;;;;;8.82;4.82;;;9.50;99.90;;;;;;5024611;28;20053;-59
2021/10/18 00:55:08;;;;;;;6.45;5.00;;;9.50;99.90;;;;;;5024143;28;20488;-59
2021/10/18 00:57:36;;;;;;;9.20;4.93;;;9.50;99.90;;;;;;5023315;28;20049;-58
2021/10/18 01:00:04;;;;;;;6.40;4.60;;;9.50;99.90;;;;;;5024319;28;20092;-58
2021/10/18 01:02:31;;;;;;;5.78;4.82;;;9.50;99.90;;;;;;5022508;28;20132;-58
2021/10/18 01:04:58;;;;;;;6.97;5.13;;;9.50;99.90;;;;;;5023825;28;20129;-59
2021/10/18 01:07:25;;;;;;;8.50;4.70;;;9.50;99.90;;;;;;4991176;28;20077;-58
2021/10/18 01:09:51;;;;;;;5.72;4.15;;;9.40;99.90;;;;;;5024101;28;20081;-58
2021/10/18 01:12:18;;;;;;;7.07;5.00;;;9.40;99.90;;;;;;5023915;28;20088;-58
2021/10/18 01:14:45;;;;;;;6.97;4.75;;;9.40;99.90;;;;;;5023641;28;20168;-58
2021/10/18 01:17:11;;;;;;;7.78;4.60;;;9.40;99.90;;;;;;5022787;28;20053;-58
2021/10/18 01:19:38;;;;;;;8.90;4.78;;;9.30;99.80;;;;;;5024547;28;20492;-58
2021/10/18 01:22:05;;;;;;;7.85;4.43;;;9.30;99.90;;;;;;5023553;28;20096;-58
2021/10/18 01:24:33;;;;;;;7.97;5.43;;;9.30;99.90;;;;;;5024874;28;20091;-58
2021/10/18 01:26:59;;;;;;;5.80;4.03;;;9.30;99.90;;;;;;5024007;28;20523;-58
2021/10/18 01:29:32;;;;;;;6.60;4.82;;;9.20;99.80;;;;;;5023950;28;20140;-58
2021/10/18 01:31:59;;;;;;;8.27;4.10;;;9.20;99.80;;;;;;5023153;28;20049;-58
2021/10/18 01:34:27;;;;;;;8.55;4.70;;;9.10;99.80;;;;;;5025302;28;20045;-59
2021/10/18 01:36:55;;;;;;;6.40;5.07;;;9.10;99.90;;;;;;5025010;28;20068;-59
2021/10/18 01:39:22;;;;;;;9.05;4.72;;;9.10;99.90;;;;;;5024596;28;20128;-59
2021/10/18 01:41:49;;;;;;;9.23;4.55;;;9.10;99.90;;;;;;5025482;28;20132;-59
2021/10/18 01:44:15;;;;;;;9.35;4.88;;;9.10;99.90;;;;;;5025467;28;20136;-58
2021/10/18 01:46:42;;;;;;;7.32;4.57;;;9.10;99.90;;;;;;5025561;28;20416;-59
2021/10/18 01:49:09;;;;;;;7.30;5.18;;;9.00;99.90;;;;;;5024897;28;20052;-58
2021/10/18 01:51:36;;;;;;;6.65;5.22;;;9.10;99.90;;;;;;5025378;28;20599;-59
2021/10/18 01:54:03;;;;;;;10.13;5.28;;;9.00;99.90;;;;;;5025610;28;20049;-59
2021/10/18 01:56:31;;;;;;;7.55;5.45;;;9.10;99.90;;;;;;5025801;28;20095;-58
2021/10/18 01:58:58;;;;;;;7.50;4.40;;;9.10;99.90;;;;;;5024619;28;20128;-59
2021/10/18 02:01:25;;;;;;;8.82;5.25;;;9.00;99.90;;;;;;5008142;28;20088;-58
2021/10/18 02:03:52;;;;;;;5.75;4.30;;;9.00;99.90;;;;;;5025189;28;20091;-58
2021/10/18 02:06:19;;;;;;;7.10;4.78;;;9.00;99.90;;;;;;5026033;28;20096;-58
2021/10/18 02:08:46;;;;;;;6.93;4.75;;;9.00;99.90;;;;;;5025241;28;20045;-58
2021/10/18 02:11:13;;;;;;;9.25;5.00;;;9.00;99.90;;;;;;5025393;28;20088;-58
2021/10/18 02:13:39;;;;;;;8.18;5.30;;;9.00;99.90;;;;;;5024462;28;20085;-58
2021/10/18 02:16:06;;;;;;;8.85;5.57;;;9.00;99.90;;;;;;5025800;28;20137;-58
2021/10/18 02:18:33;;;;;;;7.90;4.90;;;9.10;99.90;;;;;;5024389;28;20049;-58
2021/10/18 02:21:01;;;;;;;7.95;4.88;;;9.10;99.90;;;;;;5024522;28;20095;-58
2021/10/18 02:23:28;;;;;;;8.50;4.68;;;9.10;99.90;;;;;;5024147;28;20623;-58
2021/10/18 02:25:55;;;;;;;8.45;4.85;;;9.10;99.90;;;;;;5025245;28;20470;-57
2021/10/18 02:28:22;;;;;;;9.35;5.65;;;9.10;99.90;;;;;;5024017;28;20152;-58
2021/10/18 02:30:49;;;;;;;6.63;5.13;;;9.10;99.90;;;;;;5023657;28;20133;-58
2021/10/18 02:33:16;;;;;;;7.30;4.32;;;9.10;99.90;;;;;;5023945;28;20041;-59
2021/10/18 02:35:43;;;;;;;6.65;4.78;;;9.00;99.90;;;;;;5024461;28;20072;-58
2021/10/18 02:38:09;;;;;;;6.30;4.32;;;9.00;99.90;;;;;;5025239;28;20099;-59
2021/10/18 02:40:36;;;;;;;9.57;5.03;;;9.00;99.90;;;;;;5024000;28;20050;-58
2021/10/18 02:43:03;;;;;;;6.20;4.85;;;9.00;99.90;;;;;;5024228;28;20135;-57
2021/10/18 02:45:30;;;;;;;9.35;4.65;;;9.00;99.90;;;;;;5024100;28;20493;-58
2021/10/18 02:47:57;;;;;;;7.53;4.88;;;9.00;99.90;;;;;;5024152;28;20124;-57
2021/10/18 02:50:23;;;;;;;8.60;5.03;;;8.90;99.90;;;;;;5024307;28;20148;-57
2021/10/18 02:52:50;;;;;;;7.05;5.07;;;8.90;99.90;;;;;;5024984;28;20049;-57
2021/10/18 02:55:17;;;;;;;7.22;5.22;;;8.90;99.90;;;;;;5024876;28;20176;-57
2021/10/18 02:57:43;;;;;;;8.55;5.40;;;8.90;99.90;;;;;;5038775;28;20076;-60
2021/10/18 03:00:11;;;;;;;11.77;6.03;;;8.90;99.90;;;;;;5023176;28;20077;-58
2021/10/18 03:02:38;;;;;;;8.40;6.70;;;9.00;99.90;;;;;;5023838;28;20084;-60
2021/10/18 03:05:06;;;;;;;14.35;8.23;;;9.00;99.90;;;;;;5024444;28;20045;-58
2021/10/18 03:07:33;;;;;;;10.50;8.13;;;9.00;99.90;;;;;;5024702;28;20145;-57
2021/10/18 03:10:00;;;;;;;11.57;7.63;;;9.00;99.90;;;;;;5024253;28;20501;-57
2021/10/18 03:12:27;;;;;;;11.30;7.43;;;9.10;99.90;;;;;;5038951;28;20510;-60
2021/10/18 03:14:53;;;;;;;13.82;8.50;;;9.10;99.90;;;;;;5024258;28;20063;-56
2021/10/18 03:17:20;;;;;;;11.73;7.80;;;9.10;99.90;;;;;;5038107;28;20085;-58
2021/10/18 03:19:47;;;;;;;13.85;10.43;;;9.30;99.90;;;;;;5024382;28;20088;-57
2021/10/18 03:22:13;;;;;;;11.02;8.88;;;9.30;99.90;;;;;;5023530;28;20131;-58
2021/10/18 03:24:40;;;;;;;11.38;9.07;;;9.50;99.90;;;;;;5024529;28;20088;-58
2021/10/18 03:27:07;;;;;;;16.38;10.05;;;9.50;99.90;;;;;;5023903;28;20734;-58
2021/10/18 03:29:34;;;;;;;16.27;9.43;;;9.70;99.90;;;;;;5023321;28;20136;-58
2021/10/18 03:32:00;;;;;;;12.90;8.55;;;9.80;99.90;;;;;;5023338;28;20388;-58
2021/10/18 03:34:27;;;;;;;10.77;7.95;;;9.80;99.90;;;;;;5003003;28;20173;-58
2021/10/18 03:36:54;;;;;;;12.88;9.32;;;10.00;99.90;;;;;;5015477;28;20124;-58
2021/10/18 03:39:21;;;;;;;13.70;9.10;;;10.00;99.90;;;;;;5023956;28;20090;-57
2021/10/18 03:41:48;;;;;;;12.38;7.68;;;10.10;99.90;;;;;;5024022;28;20076;-58
2021/10/18 03:44:14;;;;;;;16.13;10.50;;;10.20;99.90;;;;;;5023050;28;20042;-58
2021/10/18 03:46:41;;;;;;;13.85;11.60;;;10.30;99.90;;;;;;5023909;28;20081;-58
2021/10/18 03:49:08;;;;;;;20.55;13.73;;;10.40;99.90;;;;;;5023700;28;20045;-58
2021/10/18 03:51:35;;;;;;;18.13;11.68;;;10.60;99.90;;;;;;5023803;28;20053;-58
2021/10/18 03:54:01;;;;;;;21.33;12.13;;;10.70;99.90;;;;;;5023445;28;20132;-58
2021/10/18 03:56:28;;;;;;;17.05;12.55;;;10.80;99.90;;;;;;5024126;28;20084;-58
2021/10/18 03:58:55;;;;;;;19.33;13.63;;;10.90;99.90;;;;;;5022873;28;20501;-58
2021/10/18 04:01:22;;;;;;;20.70;14.73;;;11.00;99.90;;;;;;5024276;28;20133;-58
2021/10/18 04:03:49;;;;;;;22.50;14.80;;;11.10;99.90;;;;;;5022594;28;20526;-58
2021/10/18 04:06:15;;;;;;;20.05;14.43;;;11.20;99.90;;;;;;5024108;28;20096;-58
2021/10/18 04:08:43;;;;;;;20.85;14.68;;;11.30;99.90;;;;;;5022031;28;20128;-58
2021/10/18 04:11:10;;;;;;;20.83;14.82;;;11.40;99.90;;;;;;5024272;28;20088;-58
2021/10/18 04:13:37;;;;;;;19.08;13.75;;;11.50;99.90;;;;;;5025740;28;20140;-58
2021/10/18 04:16:03;;;;;;;24.92;15.20;;;11.60;99.90;;;;;;5028106;28;20133;-58
2021/10/18 04:18:30;;;;;;;25.00;14.98;;;11.70;99.90;;;;;;5026560;28;20500;-58
2021/10/18 04:20:59;;;;;;;23.27;14.80;;;11.90;99.90;;;;;;5027599;28;20088;-58
2021/10/18 04:23:29;;;;;;;24.13;14.18;;;11.90;99.90;;;;;;5027607;28;20556;-58
2021/10/18 04:25:56;;;;;;;19.80;13.98;;;12.00;99.90;;;;;;5026365;28;20111;-58
2021/10/18 04:28:22;;;;;;;21.05;13.35;;;12.10;99.90;;;;;;5026518;28;20084;-58
2021/10/18 04:30:49;;;;;;;18.83;13.57;;;12.10;99.90;;;;;;5027480;28;20166;-58
2021/10/18 04:33:16;;;;;;;19.40;14.15;;;12.20;99.90;;;;;;5026669;28;20107;-58
2021/10/18 04:35:43;;;;;;;19.13;13.98;;;12.10;99.90;;;;;;5027202;28;20061;-58
2021/10/18 04:38:10;;;;;;;17.38;12.35;;;12.20;99.90;;;;;;5026768;28;20445;-58
2021/10/18 04:40:37;;;;;;;22.75;15.07;;;12.20;99.90;;;;;;5027156;28;20626;-58
2021/10/18 04:43:03;;;;;;;18.67;13.45;;;12.10;99.90;;;;;;5027260;28;20132;-59
2021/10/18 04:45:30;;;;;;;15.13;11.38;;;12.10;99.90;;;;;;5026711;28;20119;-59
2021/10/18 04:47:57;;;;;;;17.17;13.05;;;12.00;99.90;;;;;;5026491;28;20077;-58
2021/10/18 04:50:24;;;;;;;22.02;13.80;;;12.00;99.90;;;;;;5025308;28;20053;-58
2021/10/18 04:52:51;;;;;;;16.23;12.75;;;12.00;99.90;;;;;;5027150;28;20095;-59
2021/10/18 04:55:17;;;;;;;24.80;14.00;;;12.00;99.90;;;;;;5030439;28;20080;-59
2021/10/18 04:57:55;;;;;;;19.60;14.20;;;11.90;99.90;;;;;;5028633;28;20125;-58
2021/10/18 05:00:22;;;;;;;18.52;13.43;;;11.90;99.90;;;;;;5025396;28;20089;-58
2021/10/18 05:02:49;;;;;;;17.00;13.98;;;12.00;99.90;;;;;;5024185;28;20076;-58
2021/10/18 05:05:17;;;;;;;19.55;13.38;;;11.90;99.90;;;;;;5007130;28;20168;-58
2021/10/18 05:07:44;;;;;;;19.10;13.65;;;11.90;99.90;;;;;;5024629;28;20053;-58
2021/10/18 05:10:14;;;;;;;19.48;12.82;;;11.90;99.90;;;;;;5024340;28;20139;-57
2021/10/18 05:12:41;;;;;;;17.02;13.77;;;11.90;99.90;;;;;;5022197;28;20049;-58
2021/10/18 05:15:08;;;;;;;17.65;13.38;;;11.90;99.90;;;;;;5024165;28;20057;-58
2021/10/18 05:17:35;;;;;;;20.98;14.98;;;11.90;99.90;;;;;;5023883;28;20116;-58
2021/10/18 05:20:01;;;;;;;18.70;13.60;;;11.90;99.90;;;;;;5023906;28;20081;-58
2021/10/18 05:22:28;;;;;;;17.42;13.30;;;11.80;99.90;;;;;;5022717;28;20104;-58
2021/10/18 05:24:55;;;;;;;21.48;15.75;;;11.80;99.90;;;;;;5023375;28;20046;-58
2021/10/18 05:27:22;;;;;;;22.48;17.30;;;11.70;99.90;;;;;;5022799;28;20160;-58
2021/10/18 05:29:48;;;;;;;19.20;13.75;;;11.70;99.90;;;;;;5022237;28;20133;-58
2021/10/18 05:32:15;;;;;;;17.33;13.48;;;11.70;99.90;;;;;;5022386;28;20545;-58
2021/10/18 05:34:42;;;;;;;19.08;15.20;;;11.70;99.90;;;;;;5022830;28;20128;-58
2021/10/18 05:37:08;;;;;;;19.13;14.50;;;11.60;99.90;;;;;;5023168;28;20144;-59
2021/10/18 05:39:35;;;;;;;17.08;13.75;;;11.60;99.90;;;;;;5020481;28;20077;-58
2021/10/18 05:42:02;;;;;;;17.42;13.45;;;11.60;99.90;;;;;;5018432;28;20169;-58
2021/10/18 05:44:29;;;;;;;17.23;12.77;;;11.50;99.90;;;;;;5019154;28;20124;-58
2021/10/18 05:46:55;;;;;;;17.40;12.32;;;11.50;99.90;;;;;;5019144;28;20132;-58
2021/10/18 05:49:22;;;;;;;18.00;13.18;;;11.40;99.90;;;;;;5020088;28;20558;-58
2021/10/18 05:51:49;;;;;;;19.08;14.10;;;11.40;99.90;;;;;;5019536;28;20134;-58
2021/10/18 05:54:16;;;;;;;26.00;19.45;;;11.40;99.90;;;;;;5019823;28;20092;-58
2021/10/18 05:56:42;;;;;;;20.17;15.48;;;11.30;99.90;;;;;;5020211;28;20714;-59
2021/10/18 05:59:09;;;;;;;17.95;13.95;;;11.30;99.90;;;;;;5018321;28;20105;-57
2021/10/18 06:01:36;;;;;;;19.40;14.32;;;11.20;99.90;;;;;;5020298;28;20096;-57
2021/10/18 06:04:03;;;;;;;25.02;15.50;;;11.20;99.90;;;;;;5019950;28;20167;-58
2021/10/18 06:06:35;;;;;;;21.90;14.73;;;11.20;99.90;;;;;;5020382;28;20340;-58
2021/10/18 06:09:22;;;;;;;17.70;13.90;;;11.20;99.90;;;;;;5020142;28;20061;-58
2021/10/18 06:11:48;;;;;;;15.77;12.90;;;11.20;99.90;;;;;;5020090;28;20413;-58
2021/10/18 06:14:15;;;;;;;22.10;16.35;;;11.20;99.90;;;;;;5019308;28;20046;-58
2021/10/18 06:16:42;;;;;;;20.70;14.43;;;11.20;99.90;;;;;;5019663;28;20172;-57
2021/10/18 06:19:09;;;;;;;19.13;14.90;;;11.20;99.90;;;;;;5020582;28;20055;-58
2021/10/18 06:21:35;;;;;;;18.52;13.60;;;11.20;99.90;;;;;;5019022;28;20111;-58
2021/10/18 06:24:05;;;;;;;18.33;13.55;;;11.20;99.90;;;;;;5019667;28;20049;-58
2021/10/18 06:26:32;;;;;;;19.33;13.82;;;11.20;99.90;;;;;;5019430;28;20204;-58
2021/10/18 06:28:58;;;;;;;17.33;14.10;;;11.30;99.90;;;;;;5017355;28;20136;-58
2021/10/18 06:31:25;;;;;;;16.67;12.32;;;11.30;99.90;;;;;;5017747;28;20351;-58
2021/10/18 06:33:52;;;;;;;18.75;14.45;;;11.30;99.90;;;;;;5018449;28;20539;-58
2021/10/18 06:36:19;;;;;;;22.45;15.30;;;11.30;99.90;;;;;;5017394;28;20153;-58
2021/10/18 06:38:46;;;;;;;19.83;14.52;;;11.30;99.90;;;;;;5018960;28;20132;-58
2021/10/18 06:41:12;;;;;;;19.38;14.60;;;11.20;99.90;;;;;;5020184;28;20382;-58
2021/10/18 06:43:39;;;;;;;21.67;14.32;;;11.20;99.90;;;;;;5018253;28;20134;-58
2021/10/18 06:46:06;;;;;;;20.05;15.63;;;11.20;99.90;;;;;;5019455;28;20085;-58
2021/10/18 06:48:36;;;;;;;22.92;16.55;;;11.20;99.90;;;;;;5017494;28;20049;-58
2021/10/18 06:51:03;;;;;;;22.83;17.35;;;11.30;99.90;;;;;;5018949;28;20140;-58
2021/10/18 06:53:34;;;;;;;19.83;15.77;;;11.30;99.90;;;;;;5019091;28;20093;-58
2021/10/18 06:56:04;;;;;;;20.35;16.98;;;11.40;99.90;;;;;;5019337;28;20091;-58
2021/10/18 06:58:30;;;;;;;20.15;17.02;;;11.40;99.90;;;;;;5018730;28;20560;-58
2021/10/18 07:00:57;;;;;;;17.42;15.55;;;11.40;99.90;;;;;;5018904;28;20049;-58
2021/10/18 07:03:24;;;;;;;19.58;15.75;;;11.50;99.90;;;;;;5018311;28;20042;-58
2021/10/18 07:05:51;;;;;;;17.33;13.15;;;11.60;99.90;;;;;;5019231;28;20089;-59
2021/10/18 07:08:18;;;;;;;17.65;15.60;;;11.70;99.90;;;;;;5018030;28;20124;-58
2021/10/18 07:10:45;;;;;;;20.95;16.08;;;11.80;99.90;;;;;;5018906;28;20053;-58
2021/10/18 07:13:12;;;;;;;22.20;17.17;;;11.90;99.90;;;;;;5015573;28;20482;-58
2021/10/18 07:15:39;;;;;;;23.23;16.58;;;12.00;99.90;;;;;;5019206;28;20104;-59
2021/10/18 07:18:09;;;;;;;21.92;15.30;;;12.10;99.90;;;;;;5017677;28;20045;-59
2021/10/18 07:20:36;;;;;;;28.17;19.30;;;12.10;99.90;;;;;;5014103;28;20077;-58
2021/10/18 07:23:07;;;;;;;21.52;16.60;;;12.20;99.90;;;;;;5015911;28;20143;-58
2021/10/18 07:25:34;;;;;;;21.45;17.80;;;12.30;99.90;;;;;;5015311;28;20073;-59
2021/10/18 07:28:01;;;;;;;19.63;16.98;;;12.40;99.90;;;;;;5015166;28;20089;-59
2021/10/18 07:30:27;;;;;;;18.33;16.42;;;12.40;99.90;;;;;;5017198;28;20084;-58
2021/10/18 07:32:54;;;;;;;18.60;16.13;;;12.50;99.90;;;;;;5016327;28;20472;-58
2021/10/18 07:35:27;;;;;;;22.52;16.65;;;12.60;99.90;;;;;;5017583;28;20140;-59
2021/10/18 07:37:55;;;;;;;17.10;14.90;;;12.70;99.90;;;;;;5013424;28;20172;-59
2021/10/18 07:40:23;;;;;;;19.10;15.77;;;12.70;99.90;;;;;;5018755;28;20065;-58
2021/10/18 07:42:49;;;;;;;19.95;16.27;;;12.80;99.90;;;;;;5001156;28;20140;-58
2021/10/18 07:45:16;;;;;;;17.83;15.40;;;12.90;99.90;;;;;;5017386;28;20120;-59
2021/10/18 07:47:43;;;;;;;21.30;16.33;;;13.00;99.90;;;;;;5017959;28;20142;-58
2021/10/18 07:50:10;;;;;;;18.33;15.38;;;13.00;99.90;;;;;;5017109;28;20128;-59
2021/10/18 07:52:38;;;;;;;17.80;14.65;;;13.10;99.90;;;;;;5018802;28;20130;-61
2021/10/18 07:55:12;;;;;;;21.15;13.68;;;13.20;99.90;;;;;;5017774;28;20168;-59
2021/10/18 07:57:42;;;;;;;18.08;14.95;;;13.20;99.90;;;;;;5018847;28;20085;-58
2021/10/18 08:00:10;;;;;;;21.08;16.45;;;13.40;99.90;;;;;;5016603;28;20171;-58
2021/10/18 08:02:37;;;;;;;20.08;15.43;;;13.40;99.90;;;;;;5016606;28;20473;-59
2021/10/18 08:05:04;;;;;;;18.63;14.85;;;13.50;99.90;;;;;;5016742;28;20057;-59
2021/10/18 08:07:36;;;;;;;19.75;15.43;;;13.50;99.90;;;;;;5014965;28;20110;-58
2021/10/18 08:10:06;;;;;;;16.80;15.10;;;13.60;99.90;;;;;;5014861;28;20085;-59
2021/10/18 08:12:37;;;;;;;21.33;14.82;;;13.60;99.90;;;;;;5016635;28;20738;-58
2021/10/18 08:15:04;;;;;;;17.63;14.43;;;13.70;99.90;;;;;;5016100;28;20049;-58
2021/10/18 08:17:30;;;;;;;25.15;16.67;;;13.80;99.90;;;;;;5015695;28;20091;-59
2021/10/18 08:19:57;;;;;;;19.75;14.77;;;13.80;99.90;;;;;;5017574;28;20141;-58
2021/10/18 08:22:24;;;;;;;17.60;15.57;;;13.90;99.90;;;;;;5017728;28;20107;-59
2021/10/18 08:24:51;;;;;;;22.50;15.65;;;14.00;99.90;;;;;;5017431;28;20175;-59
2021/10/18 08:27:18;;;;;;;16.17;14.25;;;14.00;99.90;;;;;;5016302;28;20076;-60
2021/10/18 08:29:44;;;;;;;19.42;16.50;;;14.00;99.90;;;;;;5015602;28;20164;-60
2021/10/18 08:32:11;;;;;;;18.70;14.90;;;14.10;99.90;;;;;;5016862;28;20450;-61
2021/10/18 08:34:38;;;;;;;21.15;15.07;;;14.10;99.90;;;;;;5018043;28;20568;-61
2021/10/18 08:37:05;;;;;;;16.88;15.10;;;14.10;99.90;;;;;;5018027;28;20061;-60
2021/10/18 08:42:30;;;;;;;19.13;13.48;;;14.20;99.90;;;;;;5017483;28;20140;-60
2021/10/18 08:44:56;;;;;;;15.30;12.32;;;14.30;99.90;;;;;;5016811;28;20429;-60
2021/10/18 08:47:26;;;;;;;14.95;13.35;;;14.30;99.90;;;;;;5015892;28;20144;-60
2021/10/18 08:49:53;;;;;;;16.73;13.40;;;14.30;99.90;;;;;;5018133;28;20168;-59
2021/10/18 08:52:20;;;;;;;15.65;13.05;;;14.40;99.90;;;;;;5017267;28;20101;-60
2021/10/18 08:54:47;;;;;;;14.48;12.82;;;14.40;99.90;;;;;;5018213;28;20143;-60
2021/10/18 08:57:14;;;;;;;17.00;13.20;;;14.40;99.90;;;;;;5017366;28;20057;-60
2021/10/18 08:59:41;;;;;;;18.58;13.13;;;14.50;99.90;;;;;;5019261;28;20144;-60
2021/10/18 09:02:07;;;;;;;29.27;14.13;;;14.60;99.90;;;;;;5020503;28;20103;-58
2021/10/18 09:04:38;;;;;;;14.43;12.40;;;14.60;99.90;;;;;;5019829;28;20061;-60
2021/10/18 09:07:15;;;;;;;16.30;11.57;;;14.80;99.90;;;;;;5021397;28;20131;-60
2021/10/18 09:09:50;;;;;;;17.35;11.80;;;14.80;99.90;;;;;;5021625;28;20107;-60
2021/10/18 09:12:26;;;;;;;16.83;12.10;;;14.90;99.90;;;;;;5020468;28;20083;-60
2021/10/18 09:14:54;;;;;;;15.52;11.93;;;15.00;99.90;;;;;;5020596;28;20081;-60
2021/10/18 09:17:33;;;;;;;15.98;11.30;;;15.10;99.90;;;;;;5020772;28;20057;-60
2021/10/18 09:20:23;;;;;;;13.32;9.90;;;15.20;99.70;;;;;;5019451;28;20132;-60
2021/10/18 09:22:51;;;;;;;13.10;10.00;;;15.30;99.80;;;;;;5020753;28;20615;-60
2021/10/18 09:25:35;;;;;;;14.82;10.30;;;15.40;99.90;;;;;;5020103;28;20077;-60
2021/10/18 09:28:08;;;;;;;14.07;9.82;;;15.40;99.40;;;;;;5020488;28;20292;-60
2021/10/18 09:30:40;;;;;;;13.32;9.18;;;15.50;99.70;;;;;;5020843;28;20053;-60
2021/10/18 09:33:22;;;;;;;17.05;10.63;;;15.50;99.60;;;;;;5002217;28;20063;-58
2021/10/18 09:35:50;;;;;;;20.67;10.65;;;15.60;99.20;;;;;;5020342;28;20092;-60
2021/10/18 09:38:18;;;;;;;13.50;9.38;;;15.60;99.20;;;;;;5020854;28;20085;-60
2021/10/18 09:40:45;;;;;;;12.75;9.90;;;15.60;99.20;;;;;;5023280;28;20068;-58
2021/10/18 09:46:37;;;;;;;11.35;8.25;;;15.70;98.90;;;;;;5023615;28;20541;-58
2021/10/18 10:53:58;;;;;;;9.88;6.65;;;17.20;94.40;;;;;;5015652;28;20053;-58
2021/10/18 10:56:45;;;;;;;10.48;7.35;;;17.30;95.10;;;;;;5017472;28;20045;-58
2021/10/18 10:59:23;;;;;;;9.98;6.57;;;17.40;94.20;;;;;;5018508;28;20049;-57
2021/10/18 11:02:11;;;;;;;12.27;7.22;;;17.40;94.90;;;;;;5017837;28;20053;-58
2021/10/18 11:04:47;;;;;;;9.45;6.82;;;17.50;94.20;;;;;;5018224;28;20050;-60
2021/10/18 11:07:41;;;;;;;12.98;7.97;;;17.50;93.70;;;;;;5019219;28;20050;-60
2021/10/18 11:10:08;;;;;;;10.27;6.82;;;17.60;93.70;;;;;;5019102;28;20096;-61
2021/10/18 11:12:36;;;;;;;11.88;7.18;;;17.60;94.10;;;;;;5018211;28;20061;-60
2021/10/18 11:15:06;;;;;;;10.10;7.65;;;17.60;93.70;;;;;;5016467;28;20140;-60
2021/10/18 11:17:35;;;;;;;9.27;7.07;;;17.60;93.50;;;;;;5016966;28;20059;-60
2021/10/18 11:20:07;;;;;;;9.90;7.30;;;17.50;93.80;;;;;;5017917;28;20667;-60
2021/10/18 11:22:37;;;;;;;9.55;7.43;;;17.50;94.20;;;;;;5015983;28;20081;-60
2021/10/18 11:25:08;;;;;;;13.40;7.63;;;17.60;93.90;;;;;;5018129;28;20037;-60
2021/10/18 11:27:35;;;;;;;8.43;6.68;;;17.70;93.30;;;;;;5018579;28;20059;-60
2021/10/18 11:30:05;;;;;;;8.15;7.10;;;17.70;92.90;;;;;;5018519;28;20575;-58
2021/10/18 11:32:32;;;;;;;12.85;8.00;;;17.80;93.20;;;;;;5032406;28;20551;-58
2021/10/18 11:35:17;;;;;;;13.48;6.93;;;17.90;92.90;;;;;;5017526;28;20049;-58
2021/10/18 11:37:48;;;;;;;11.65;6.32;;;18.00;92.10;;;;;;5018174;28;20478;-58
2021/10/18 11:40:15;;;;;;;9.73;6.07;;;18.00;92.50;;;;;;5017721;28;20045;-58
2021/10/18 11:42:56;;;;;;;10.80;6.30;;;18.20;92.20;;;;;;5018342;28;20084;-59
2021/10/18 11:45:25;;;;;;;9.23;6.53;;;18.50;91.90;;;;;;5016662;28;20240;-58
2021/10/18 11:47:52;;;;;;;12.68;5.78;;;18.80;92.20;;;;;;5016710;28;20425;-58
2021/10/18 11:50:20;;;;;;;8.95;5.90;;;18.90;92.10;;;;;;5018673;28;20167;-59
2021/10/18 11:52:58;;;;;;;7.80;5.72;;;19.00;91.70;;;;;;5015929;28;20456;-58
2021/10/18 11:55:25;;;;;;;12.85;5.43;;;19.10;91.20;;;;;;5017039;28;20069;-59
2021/10/18 11:57:53;;;;;;;8.27;6.07;;;19.10;90.70;;;;;;5014875;28;20164;-58
2021/10/18 12:00:43;;;;;;;9.77;4.80;;;19.00;91.60;;;;;;5017858;28;20144;-58
2021/10/18 12:03:15;;;;;;;8.02;4.68;;;19.10;91.30;;;;;;5016941;28;20053;-58
2021/10/18 12:05:49;;;;;;;7.13;5.07;;;19.00;91.20;;;;;;5018186;28;20088;-58
2021/10/18 12:08:20;;;;;;;7.65;5.05;;;19.10;91.50;;;;;;5018746;28;20188;-58
2021/10/18 12:10:48;;;;;;;7.03;5.13;;;19.10;90.40;;;;;;5016475;28;20507;-58
2021/10/18 12:13:31;;;;;;;10.65;4.97;;;19.10;90.90;;;;;;5016507;28;20147;-58
2021/10/18 12:16:04;;;;;;;5.85;4.55;;;19.10;91.00;;;;;;5017403;28;20049;-58
2021/10/18 12:18:37;;;;;;;;;;;19.00;90.40;;;;;;5017434;28;20053;-59
2021/10/18 12:21:23;;;;;;;9.87;4.77;;;19.10;90.30;;;;;;5018762;28;20293;-59
2021/10/18 12:23:53;;;;;;;8.82;5.47;;;19.10;90.20;;;;;;5017977;28;20821;-58
2021/10/18 12:26:29;;;;;;;8.52;4.65;;;19.10;90.80;;;;;;5015851;28;20576;-59
2021/10/18 12:29:13;;;;;;;6.50;4.65;;;19.10;90.70;;;;;;5017730;28;20049;-58
2021/10/18 12:31:47;;;;;;;7.82;4.53;;;19.10;90.80;;;;;;5016425;28;20107;-58
2021/10/18 12:34:22;;;;;;;6.32;4.25;;;19.10;91.00;;;;;;5021558;28;20401;-58
2021/10/18 12:37:11;;;;;;;9.07;4.50;;;19.10;91.00;;;;;;5019945;28;20103;-58
2021/10/18 12:39:54;;;;;;;8.13;5.15;;;19.10;90.40;;;;;;5019214;28;20077;-59
2021/10/18 12:42:23;;;;;;;7.13;4.67;;;19.00;90.90;;;;;;5021396;28;20168;-59
2021/10/18 12:45:07;;;;;;;10.20;4.85;;;19.00;90.80;;;;;;5021272;28;20076;-58
2021/10/18 12:47:36;;;;;;;7.15;4.70;;;18.80;90.90;;;;;;5021732;28;20305;-58
2021/10/18 12:50:15;;;;;;;5.55;3.80;;;18.70;91.60;;;;;;5020293;28;20587;-58
2021/10/18 12:52:53;;;;;;;9.13;4.65;;;18.60;91.60;;;;;;5022188;28;20145;-58
2021/10/18 12:55:30;;;;;;;11.00;4.43;;;18.70;91.80;;;;;;5021088;28;20284;-58
2021/10/18 12:57:58;;;;;;;8.75;4.53;;;18.60;92.10;;;;;;5018376;28;20084;-58
2021/10/18 13:00:36;;;;;;;6.63;3.92;;;18.50;92.10;;;;;;5021501;28;20429;-58
2021/10/18 13:03:06;;;;;;;6.22;4.85;;;18.40;92.20;;;;;;5021747;28;20535;-58
2021/10/18 13:05:45;;;;;;;7.32;4.47;;;18.20;92.50;;;;;;5021795;28;20429;-58
2021/10/18 13:08:13;;;;;;;6.68;5.15;;;18.20;92.80;;;;;;5021820;28;20049;-58
2021/10/18 13:10:43;;;;;;;8.60;5.22;;;18.10;92.70;;;;;;5022632;28;20106;-58
2021/10/18 13:13:13;;;;;;;8.57;4.90;;;18.00;92.90;;;;;;5020366;28;20135;-57
2021/10/18 13:15:40;;;;;;;7.45;5.03;;;18.10;93.10;;;;;;5022598;28;20081;-58
2021/10/18 13:18:08;;;;;;;10.45;6.10;;;18.10;93.10;;;;;;5020698;28;20140;-58
2021/10/18 13:20:35;;;;;;;8.82;5.00;;;18.20;93.00;;;;;;5022430;28;20057;-58
2021/10/18 13:23:02;;;;;;;9.50;4.47;;;18.20;93.00;;;;;;5021645;28;20136;-58
2021/10/18 13:25:30;;;;;;;10.35;5.15;;;18.20;92.90;;;;;;5021978;28;20077;-59
2021/10/18 13:27:57;;;;;;;8.77;4.88;;;18.20;93.20;;;;;;5021447;28;20284;-58
2021/10/18 13:30:25;;;;;;;9.30;5.05;;;18.30;93.00;;;;;;5021163;28;20136;-58
2021/10/18 13:32:53;;;;;;;7.20;5.40;;;18.20;92.90;;;;;;5019426;28;20076;-58
2021/10/18 13:35:20;;;;;;;8.07;5.07;;;18.20;93.00;;;;;;5020165;28;20107;-58
2021/10/18 13:37:47;;;;;;;11.80;6.35;;;18.10;93.30;;;;;;5021882;28;20053;-58
2021/10/18 13:40:14;;;;;;;10.50;5.15;;;18.00;93.70;;;;;;5021529;28;20549;-58
2021/10/18 13:42:42;;;;;;;15.02;5.03;;;17.90;93.90;;;;;;5019479;28;20080;-58
2021/10/18 13:45:09;;;;;;;7.47;4.82;;;17.80;94.00;;;;;;5019123;28;20129;-58
2021/10/18 13:47:36;;;;;;;11.40;5.15;;;17.80;94.40;;;;;;5020790;28;20220;-59
2021/10/18 13:50:04;;;;;;;8.63;5.55;;;17.80;94.40;;;;;;5021805;28;20129;-58
2021/10/18 13:52:33;;;;;;;8.40;4.72;;;17.70;94.60;;;;;;5020709;28;20307;-59
2021/10/18 13:55:04;;;;;;;8.90;5.38;;;17.70;94.60;;;;;;5021506;28;20062;-58
2021/10/18 13:57:33;;;;;;;13.23;6.15;;;17.60;94.80;;;;;;5018791;28;20382;-58